sensor_id;sensor_type;location;lat;lon;timestamp;temperature;humidity
77592;DHT22;66891;46.884;17.436;2023-05-10T00:01:42;8.92;83.23
77592;DHT22;66891;46.884;17.436;2023-05-10T00:04:12;8.90;83.40
77592;DHT22;66891;46.884;17.436;2023-05-10T00:06:39;8.94;83.84
77592;DHT22;66891;46.884;17.436;2023-05-10T00:09:12;8.81;83.77
77592;DHT22;66891;46.884;17.436;2023-05-10T00:11:41;8.79;84.00
77592;DHT22;66891;46.884;17.436;2023-05-10T00:14:09;8.85;84.17
77592;DHT22;66891;46.884;17.436;2023-05-10T00:16:36;8.85;83.77
77592;DHT22;66891;46.884;17.436;2023-05-10T00:19:03;8.81;84.14
77592;DHT22;66891;46.884;17.436;2023-05-10T00:21:31;8.91;84.05
77592;DHT22;66891;46.884;17.436;2023-05-10T00:24:02;8.80;84.42
77592;DHT22;66891;46.884;17.436;2023-05-10T00:26:31;8.87;84.19
77592;DHT22;66891;46.884;17.436;2023-05-10T00:28:58;8.96;84.11
77592;DHT22;66891;46.884;17.436;2023-05-10T00:31:26;8.92;84.57
77592;DHT22;66891;46.884;17.436;2023-05-10T00:33:53;8.90;84.45
77592;DHT22;66891;46.884;17.436;2023-05-10T00:36:20;8.85;84.26
77592;DHT22;66891;46.884;17.436;2023-05-10T00:38:48;8.87;84.08
77592;DHT22;66891;46.884;17.436;2023-05-10T00:41:17;8.84;83.95
77592;DHT22;66891;46.884;17.436;2023-05-10T00:43:46;8.80;83.16
77592;DHT22;66891;46.884;17.436;2023-05-10T00:46:14;8.71;83.18
77592;DHT22;66891;46.884;17.436;2023-05-10T00:48:46;8.57;83.79
77592;DHT22;66891;46.884;17.436;2023-05-10T00:51:14;8.42;83.84
77592;DHT22;66891;46.884;17.436;2023-05-10T00:53:41;8.41;83.82
77592;DHT22;66891;46.884;17.436;2023-05-10T00:56:10;8.53;83.79
77592;DHT22;66891;46.884;17.436;2023-05-10T00:58:38;8.62;83.67
77592;DHT22;66891;46.884;17.436;2023-05-10T01:01:08;8.60;83.73
77592;DHT22;66891;46.884;17.436;2023-05-10T01:03:36;8.79;83.27
77592;DHT22;66891;46.884;17.436;2023-05-10T01:06:04;8.69;83.71
77592;DHT22;66891;46.884;17.436;2023-05-10T01:08:31;8.73;83.84
77592;DHT22;66891;46.884;17.436;2023-05-10T01:10:59;8.70;84.19
77592;DHT22;66891;46.884;17.436;2023-05-10T01:13:31;8.70;84.55
77592;DHT22;66891;46.884;17.436;2023-05-10T01:16:00;8.50;85.15
77592;DHT22;66891;46.884;17.436;2023-05-10T01:18:34;8.54;84.71
77592;DHT22;66891;46.884;17.436;2023-05-10T01:21:11;8.39;84.12
77592;DHT22;66891;46.884;17.436;2023-05-10T01:24:12;8.28;84.06
77592;DHT22;66891;46.884;17.436;2023-05-10T01:27:30;8.42;83.88
77592;DHT22;66891;46.884;17.436;2023-05-10T01:30:34;8.38;85.22
77592;DHT22;66891;46.884;17.436;2023-05-10T01:33:07;8.32;86.15
77592;DHT22;66891;46.884;17.436;2023-05-10T01:35:40;8.41;86.52
77592;DHT22;66891;46.884;17.436;2023-05-10T01:38:14;8.46;86.47
77592;DHT22;66891;46.884;17.436;2023-05-10T01:40:51;8.43;86.30
77592;DHT22;66891;46.884;17.436;2023-05-10T01:43:25;8.41;86.01
77592;DHT22;66891;46.884;17.436;2023-05-10T01:45:59;8.39;86.06
77592;DHT22;66891;46.884;17.436;2023-05-10T01:48:32;8.36;86.65
77592;DHT22;66891;46.884;17.436;2023-05-10T01:51:00;8.39;86.16
77592;DHT22;66891;46.884;17.436;2023-05-10T01:53:28;8.18;86.18
77592;DHT22;66891;46.884;17.436;2023-05-10T01:55:56;8.20;86.43
77592;DHT22;66891;46.884;17.436;2023-05-10T01:58:28;8.18;86.98
77592;DHT22;66891;46.884;17.436;2023-05-10T02:00:58;8.24;86.78
77592;DHT22;66891;46.884;17.436;2023-05-10T02:03:34;8.41;86.19
77592;DHT22;66891;46.884;17.436;2023-05-10T02:06:05;8.26;86.39
77592;DHT22;66891;46.884;17.436;2023-05-10T02:08:38;8.22;86.38
77592;DHT22;66891;46.884;17.436;2023-05-10T02:11:07;8.16;86.47
77592;DHT22;66891;46.884;17.436;2023-05-10T02:13:43;8.16;86.61
77592;DHT22;66891;46.884;17.436;2023-05-10T02:16:14;8.02;86.37
77592;DHT22;66891;46.884;17.436;2023-05-10T02:18:46;7.94;86.18
77592;DHT22;66891;46.884;17.436;2023-05-10T02:21:15;8.02;85.97
77592;DHT22;66891;46.884;17.436;2023-05-10T02:23:52;7.99;85.94
77592;DHT22;66891;46.884;17.436;2023-05-10T02:26:20;7.93;85.70
77592;DHT22;66891;46.884;17.436;2023-05-10T02:28:49;7.87;86.09
77592;DHT22;66891;46.884;17.436;2023-05-10T02:31:21;7.87;85.84
77592;DHT22;66891;46.884;17.436;2023-05-10T02:33:54;7.95;85.27
77592;DHT22;66891;46.884;17.436;2023-05-10T02:36:22;7.98;85.74
77592;DHT22;66891;46.884;17.436;2023-05-10T02:38:51;7.94;85.91
77592;DHT22;66891;46.884;17.436;2023-05-10T02:41:20;7.91;85.96
77592;DHT22;66891;46.884;17.436;2023-05-10T02:43:50;7.81;86.00
77592;DHT22;66891;46.884;17.436;2023-05-10T02:46:19;7.99;86.00
77592;DHT22;66891;46.884;17.436;2023-05-10T02:48:48;7.93;85.35
77592;DHT22;66891;46.884;17.436;2023-05-10T02:51:18;7.95;85.10
77592;DHT22;66891;46.884;17.436;2023-05-10T02:53:49;7.73;85.74
77592;DHT22;66891;46.884;17.436;2023-05-10T02:56:24;7.76;85.44
77592;DHT22;66891;46.884;17.436;2023-05-10T02:58:52;7.73;85.17
77592;DHT22;66891;46.884;17.436;2023-05-10T03:01:21;7.88;84.83
77592;DHT22;66891;46.884;17.436;2023-05-10T03:03:50;7.87;85.44
77592;DHT22;66891;46.884;17.436;2023-05-10T03:06:21;7.84;85.55
77592;DHT22;66891;46.884;17.436;2023-05-10T03:08:49;7.69;85.72
77592;DHT22;66891;46.884;17.436;2023-05-10T03:11:30;7.70;85.91
77592;DHT22;66891;46.884;17.436;2023-05-10T03:14:10;7.80;85.85
77592;DHT22;66891;46.884;17.436;2023-05-10T03:16:44;7.80;85.74
77592;DHT22;66891;46.884;17.436;2023-05-10T03:19:18;7.70;86.15
77592;DHT22;66891;46.884;17.436;2023-05-10T03:21:51;7.57;86.94
77592;DHT22;66891;46.884;17.436;2023-05-10T03:24:22;7.55;86.82
77592;DHT22;66891;46.884;17.436;2023-05-10T03:26:50;7.57;86.78
77592;DHT22;66891;46.884;17.436;2023-05-10T03:29:20;7.56;87.25
77592;DHT22;66891;46.884;17.436;2023-05-10T03:31:50;7.63;87.25
77592;DHT22;66891;46.884;17.436;2023-05-10T03:34:23;7.63;87.26
77592;DHT22;66891;46.884;17.436;2023-05-10T03:36:52;7.55;87.42
77592;DHT22;66891;46.884;17.436;2023-05-10T03:39:19;7.63;87.05
77592;DHT22;66891;46.884;17.436;2023-05-10T03:41:51;7.62;87.02
77592;DHT22;66891;46.884;17.436;2023-05-10T03:44:18;7.63;87.25
77592;DHT22;66891;46.884;17.436;2023-05-10T03:46:45;7.56;87.30
77592;DHT22;66891;46.884;17.436;2023-05-10T03:49:13;7.59;87.35
77592;DHT22;66891;46.884;17.436;2023-05-10T03:51:40;7.62;87.25
77592;DHT22;66891;46.884;17.436;2023-05-10T03:54:11;7.83;85.75
77592;DHT22;66891;46.884;17.436;2023-05-10T03:56:40;7.76;85.76
77592;DHT22;66891;46.884;17.436;2023-05-10T03:59:11;7.52;86.78
77592;DHT22;66891;46.884;17.436;2023-05-10T04:01:38;7.59;86.62
77592;DHT22;66891;46.884;17.436;2023-05-10T04:04:05;7.63;86.41
77592;DHT22;66891;46.884;17.436;2023-05-10T04:06:33;7.55;86.51
77592;DHT22;66891;46.884;17.436;2023-05-10T04:09:00;7.60;86.81
77592;DHT22;66891;46.884;17.436;2023-05-10T04:11:34;7.83;86.84
77592;DHT22;66891;46.884;17.436;2023-05-10T04:14:03;8.02;86.49
77592;DHT22;66891;46.884;17.436;2023-05-10T04:16:30;7.91;86.67
77592;DHT22;66891;46.884;17.436;2023-05-10T04:18:58;7.98;87.09
77592;DHT22;66891;46.884;17.436;2023-05-10T04:21:26;8.21;86.95
77592;DHT22;66891;46.884;17.436;2023-05-10T04:23:54;8.28;87.08
77592;DHT22;66891;46.884;17.436;2023-05-10T04:26:24;8.41;87.27
77592;DHT22;66891;46.884;17.436;2023-05-10T04:28:55;8.43;87.79
77592;DHT22;66891;46.884;17.436;2023-05-10T04:31:23;8.64;87.70
77592;DHT22;66891;46.884;17.436;2023-05-10T04:33:50;8.83;87.63
77592;DHT22;66891;46.884;17.436;2023-05-10T04:36:17;8.91;87.62
77592;DHT22;66891;46.884;17.436;2023-05-10T04:38:48;9.01;87.11
77592;DHT22;66891;46.884;17.436;2023-05-10T04:41:16;9.10;86.95
77592;DHT22;66891;46.884;17.436;2023-05-10T04:43:46;9.28;86.57
77592;DHT22;66891;46.884;17.436;2023-05-10T04:46:18;9.22;86.67
77592;DHT22;66891;46.884;17.436;2023-05-10T04:48:46;9.31;86.76
77592;DHT22;66891;46.884;17.436;2023-05-10T04:51:13;9.34;86.70
77592;DHT22;66891;46.884;17.436;2023-05-10T04:53:40;9.46;86.48
77592;DHT22;66891;46.884;17.436;2023-05-10T04:56:19;9.62;86.27
77592;DHT22;66891;46.884;17.436;2023-05-10T04:58:46;9.70;86.14
77592;DHT22;66891;46.884;17.436;2023-05-10T05:01:14;9.82;86.13
77592;DHT22;66891;46.884;17.436;2023-05-10T05:03:42;9.86;86.32
77592;DHT22;66891;46.884;17.436;2023-05-10T05:06:10;9.97;85.99
77592;DHT22;66891;46.884;17.436;2023-05-10T05:08:38;10.17;85.47
77592;DHT22;66891;46.884;17.436;2023-05-10T05:11:05;10.27;85.22
77592;DHT22;66891;46.884;17.436;2023-05-10T05:13:35;10.38;85.20
77592;DHT22;66891;46.884;17.436;2023-05-10T05:16:05;10.49;84.84
77592;DHT22;66891;46.884;17.436;2023-05-10T05:18:35;10.52;84.74
77592;DHT22;66891;46.884;17.436;2023-05-10T05:21:13;10.49;84.64
77592;DHT22;66891;46.884;17.436;2023-05-10T05:23:44;10.62;84.28
77592;DHT22;66891;46.884;17.436;2023-05-10T05:26:11;10.73;84.43
77592;DHT22;66891;46.884;17.436;2023-05-10T05:28:38;10.82;84.47
77592;DHT22;66891;46.884;17.436;2023-05-10T05:31:06;10.95;84.08
77592;DHT22;66891;46.884;17.436;2023-05-10T05:33:41;11.14;83.77
77592;DHT22;66891;46.884;17.436;2023-05-10T05:36:10;11.28;83.21
77592;DHT22;66891;46.884;17.436;2023-05-10T05:38:39;11.37;81.95
77592;DHT22;66891;46.884;17.436;2023-05-10T05:41:06;11.39;82.23
77592;DHT22;66891;46.884;17.436;2023-05-10T05:43:33;11.54;80.97
77592;DHT22;66891;46.884;17.436;2023-05-10T05:46:07;11.64;80.95
77592;DHT22;66891;46.884;17.436;2023-05-10T05:48:35;11.62;81.28
77592;DHT22;66891;46.884;17.436;2023-05-10T05:54:56;12.00;79.17
77592;DHT22;66891;46.884;17.436;2023-05-10T05:57:24;11.97;79.35
77592;DHT22;66891;46.884;17.436;2023-05-10T05:59:54;12.03;79.48
77592;DHT22;66891;46.884;17.436;2023-05-10T06:02:21;12.12;79.97
77592;DHT22;66891;46.884;17.436;2023-05-10T06:04:49;12.23;79.60
77592;DHT22;66891;46.884;17.436;2023-05-10T06:07:17;12.30;78.62
77592;DHT22;66891;46.884;17.436;2023-05-10T06:09:44;12.33;78.39
77592;DHT22;66891;46.884;17.436;2023-05-10T06:12:13;12.37;77.03
77592;DHT22;66891;46.884;17.436;2023-05-10T06:14:41;12.45;76.72
77592;DHT22;66891;46.884;17.436;2023-05-10T06:17:08;12.48;76.48
77592;DHT22;66891;46.884;17.436;2023-05-10T06:19:35;12.52;77.43
77592;DHT22;66891;46.884;17.436;2023-05-10T06:22:06;12.64;76.80
77592;DHT22;66891;46.884;17.436;2023-05-10T06:24:33;12.64;75.91
77592;DHT22;66891;46.884;17.436;2023-05-10T06:27:03;12.82;76.34
77592;DHT22;66891;46.884;17.436;2023-05-10T06:29:33;12.79;74.66
77592;DHT22;66891;46.884;17.436;2023-05-10T06:32:00;12.81;75.96
77592;DHT22;66891;46.884;17.436;2023-05-10T06:34:32;12.92;75.76
77592;DHT22;66891;46.884;17.436;2023-05-10T06:37:03;13.15;75.27
77592;DHT22;66891;46.884;17.436;2023-05-10T06:39:30;13.08;74.13
77592;DHT22;66891;46.884;17.436;2023-05-10T06:41:58;13.22;73.80
77592;DHT22;66891;46.884;17.436;2023-05-10T06:44:33;13.70;74.58
77592;DHT22;66891;46.884;17.436;2023-05-10T06:47:01;14.37;71.78
77592;DHT22;66891;46.884;17.436;2023-05-10T06:49:34;14.57;72.43
77592;DHT22;66891;46.884;17.436;2023-05-10T06:52:01;14.23;70.94
77592;DHT22;66891;46.884;17.436;2023-05-10T06:54:51;14.19;70.52
77592;DHT22;66891;46.884;17.436;2023-05-10T06:57:18;13.95;71.94
77592;DHT22;66891;46.884;17.436;2023-05-10T06:59:59;13.81;72.22
77592;DHT22;66891;46.884;17.436;2023-05-10T07:02:27;14.04;69.82
77592;DHT22;66891;46.884;17.436;2023-05-10T07:04:55;15.64;68.57
77592;DHT22;66891;46.884;17.436;2023-05-10T07:07:29;14.74;67.75
77592;DHT22;66891;46.884;17.436;2023-05-10T07:09:57;14.73;67.21
77592;DHT22;66891;46.884;17.436;2023-05-10T07:12:25;14.87;69.50
77592;DHT22;66891;46.884;17.436;2023-05-10T07:14:53;14.57;68.25
77592;DHT22;66891;46.884;17.436;2023-05-10T07:17:27;14.84;67.36
77592;DHT22;66891;46.884;17.436;2023-05-10T07:19:56;15.08;68.89
77592;DHT22;66891;46.884;17.436;2023-05-10T07:22:31;14.92;66.40
77592;DHT22;66891;46.884;17.436;2023-05-10T07:25:02;15.38;67.82
77592;DHT22;66891;46.884;17.436;2023-05-10T07:27:30;15.05;66.30
77592;DHT22;66891;46.884;17.436;2023-05-10T07:29:57;14.84;66.67
77592;DHT22;66891;46.884;17.436;2023-05-10T07:32:29;15.05;66.53
77592;DHT22;66891;46.884;17.436;2023-05-10T07:35:00;17.20;64.87
77592;DHT22;66891;46.884;17.436;2023-05-10T07:37:28;17.14;63.58
77592;DHT22;66891;46.884;17.436;2023-05-10T07:39:55;17.59;63.53
77592;DHT22;66891;46.884;17.436;2023-05-10T07:42:23;17.15;61.66
77592;DHT22;66891;46.884;17.436;2023-05-10T07:44:50;16.49;65.12
77592;DHT22;66891;46.884;17.436;2023-05-10T07:47:18;17.30;62.32
77592;DHT22;66891;46.884;17.436;2023-05-10T07:49:56;16.22;62.72
77592;DHT22;66891;46.884;17.436;2023-05-10T07:52:23;16.45;64.69
77592;DHT22;66891;46.884;17.436;2023-05-10T07:54:50;16.25;65.19
77592;DHT22;66891;46.884;17.436;2023-05-10T08:01:33;16.21;64.24
77592;DHT22;66891;46.884;17.436;2023-05-10T08:04:02;16.21;65.10
77592;DHT22;66891;46.884;17.436;2023-05-10T08:06:31;16.47;63.80
77592;DHT22;66891;46.884;17.436;2023-05-10T08:08:58;16.55;64.64
77592;DHT22;66891;46.884;17.436;2023-05-10T08:11:30;16.44;64.02
77592;DHT22;66891;46.884;17.436;2023-05-10T08:14:00;16.47;63.21
77592;DHT22;66891;46.884;17.436;2023-05-10T08:16:28;16.75;62.75
77592;DHT22;66891;46.884;17.436;2023-05-10T08:18:56;16.99;63.82
77592;DHT22;66891;46.884;17.436;2023-05-10T08:21:23;16.94;62.29
77592;DHT22;66891;46.884;17.436;2023-05-10T08:23:52;17.38;60.25
77592;DHT22;66891;46.884;17.436;2023-05-10T08:26:19;16.96;61.23
77592;DHT22;66891;46.884;17.436;2023-05-10T08:28:48;16.72;61.87
77592;DHT22;66891;46.884;17.436;2023-05-10T08:31:16;16.72;62.73
77592;DHT22;66891;46.884;17.436;2023-05-10T08:33:43;17.11;63.38
77592;DHT22;66891;46.884;17.436;2023-05-10T08:36:11;17.27;62.03
77592;DHT22;66891;46.884;17.436;2023-05-10T08:38:41;17.51;62.03
77592;DHT22;66891;46.884;17.436;2023-05-10T08:41:10;18.37;59.91
77592;DHT22;66891;46.884;17.436;2023-05-10T08:43:38;18.16;59.36
77592;DHT22;66891;46.884;17.436;2023-05-10T08:46:09;18.34;60.11
77592;DHT22;66891;46.884;17.436;2023-05-10T08:48:38;18.09;58.07
77592;DHT22;66891;46.884;17.436;2023-05-10T08:51:07;18.40;59.17
77592;DHT22;66891;46.884;17.436;2023-05-10T08:53:36;19.23;60.43
77592;DHT22;66891;46.884;17.436;2023-05-10T08:56:05;19.41;59.08
77592;DHT22;66891;46.884;17.436;2023-05-10T08:58:34;20.09;56.44
77592;DHT22;66891;46.884;17.436;2023-05-10T09:01:01;20.57;54.59
77592;DHT22;66891;46.884;17.436;2023-05-10T09:03:29;20.73;53.64
77592;DHT22;66891;46.884;17.436;2023-05-10T09:05:57;20.78;53.99
77592;DHT22;66891;46.884;17.436;2023-05-10T09:08:25;20.60;54.26
77592;DHT22;66891;46.884;17.436;2023-05-10T09:10:53;19.88;53.96
77592;DHT22;66891;46.884;17.436;2023-05-10T09:13:22;20.57;52.30
77592;DHT22;66891;46.884;17.436;2023-05-10T09:15:52;20.67;53.92
77592;DHT22;66891;46.884;17.436;2023-05-10T09:18:20;20.06;53.80
77592;DHT22;66891;46.884;17.436;2023-05-10T09:20:48;20.51;54.24
77592;DHT22;66891;46.884;17.436;2023-05-10T09:23:21;20.08;53.53
77592;DHT22;66891;46.884;17.436;2023-05-10T09:26:02;20.26;53.82
77592;DHT22;66891;46.884;17.436;2023-05-10T09:28:33;20.05;54.36
77592;DHT22;66891;46.884;17.436;2023-05-10T09:31:02;20.22;54.43
77592;DHT22;66891;46.884;17.436;2023-05-10T09:33:45;20.36;53.87
77592;DHT22;66891;46.884;17.436;2023-05-10T09:38:59;20.13;53.51
77592;DHT22;66891;46.884;17.436;2023-05-10T09:41:27;20.15;54.03
77592;DHT22;66891;46.884;17.436;2023-05-10T09:43:56;20.73;54.47
77592;DHT22;66891;46.884;17.436;2023-05-10T09:46:25;20.33;53.51
77592;DHT22;66891;46.884;17.436;2023-05-10T09:48:53;20.18;53.65
77592;DHT22;66891;46.884;17.436;2023-05-10T09:51:20;20.43;53.47
77592;DHT22;66891;46.884;17.436;2023-05-10T09:53:48;20.65;52.45
77592;DHT22;66891;46.884;17.436;2023-05-10T09:56:32;20.64;52.53
77592;DHT22;66891;46.884;17.436;2023-05-10T09:59:03;19.98;54.01
77592;DHT22;66891;46.884;17.436;2023-05-10T10:01:35;20.12;54.98
77592;DHT22;66891;46.884;17.436;2023-05-10T10:04:09;20.10;52.53
77592;DHT22;66891;46.884;17.436;2023-05-10T10:06:38;20.19;53.69
77592;DHT22;66891;46.884;17.436;2023-05-10T10:09:18;20.48;53.72
77592;DHT22;66891;46.884;17.436;2023-05-10T10:11:51;20.48;54.33
77592;DHT22;66891;46.884;17.436;2023-05-10T10:14:22;20.78;52.13
77592;DHT22;66891;46.884;17.436;2023-05-10T10:16:53;20.75;51.86
77592;DHT22;66891;46.884;17.436;2023-05-10T10:19:34;20.13;52.61
77592;DHT22;66891;46.884;17.436;2023-05-10T10:22:03;21.06;52.45
77592;DHT22;66891;46.884;17.436;2023-05-10T10:24:30;21.36;51.54
77592;DHT22;66891;46.884;17.436;2023-05-10T10:27:04;21.49;50.55
77592;DHT22;66891;46.884;17.436;2023-05-10T10:29:38;20.83;50.75
77592;DHT22;66891;46.884;17.436;2023-05-10T10:32:20;21.56;52.09
77592;DHT22;66891;46.884;17.436;2023-05-10T10:34:51;21.33;49.46
77592;DHT22;66891;46.884;17.436;2023-05-10T10:37:20;20.98;49.39
77592;DHT22;66891;46.884;17.436;2023-05-10T10:39:48;20.83;51.15
77592;DHT22;66891;46.884;17.436;2023-05-10T10:42:44;21.31;49.84
77592;DHT22;66891;46.884;17.436;2023-05-10T10:45:15;21.40;51.77
77592;DHT22;66891;46.884;17.436;2023-05-10T10:47:54;21.81;50.03
77592;DHT22;66891;46.884;17.436;2023-05-10T10:50:44;21.43;51.39
77592;DHT22;66891;46.884;17.436;2023-05-10T10:53:13;20.74;51.47
77592;DHT22;66891;46.884;17.436;2023-05-10T10:55:48;20.80;50.28
77592;DHT22;66891;46.884;17.436;2023-05-10T11:01:42;21.21;48.96
77592;DHT22;66891;46.884;17.436;2023-05-10T11:04:25;22.05;47.82
77592;DHT22;66891;46.884;17.436;2023-05-10T11:07:18;22.31;48.84
77592;DHT22;66891;46.884;17.436;2023-05-10T11:09:47;21.32;48.59
77592;DHT22;66891;46.884;17.436;2023-05-10T11:12:14;21.45;50.04
77592;DHT22;66891;46.884;17.436;2023-05-10T11:14:42;22.26;47.15
77592;DHT22;66891;46.884;17.436;2023-05-10T11:17:24;21.81;47.67
77592;DHT22;66891;46.884;17.436;2023-05-10T11:20:10;21.86;47.86
77592;DHT22;66891;46.884;17.436;2023-05-10T11:22:57;23.24;45.49
77592;DHT22;66891;46.884;17.436;2023-05-10T11:25:50;23.85;44.58
77592;DHT22;66891;46.884;17.436;2023-05-10T11:28:18;23.25;45.94
77592;DHT22;66891;46.884;17.436;2023-05-10T11:30:48;23.28;44.67
77592;DHT22;66891;46.884;17.436;2023-05-10T11:33:16;22.32;46.54
77592;DHT22;66891;46.884;17.436;2023-05-10T11:35:47;21.35;46.91
77592;DHT22;66891;46.884;17.436;2023-05-10T11:38:16;21.47;48.99
77592;DHT22;66891;46.884;17.436;2023-05-10T11:40:43;21.49;47.69
77592;DHT22;66891;46.884;17.436;2023-05-10T11:43:11;22.80;44.68
77592;DHT22;66891;46.884;17.436;2023-05-10T11:45:41;23.57;43.89
77592;DHT22;66891;46.884;17.436;2023-05-10T11:48:09;21.96;46.06
77592;DHT22;66891;46.884;17.436;2023-05-10T11:50:37;21.15;47.18
77592;DHT22;66891;46.884;17.436;2023-05-10T11:53:05;21.26;47.37
77592;DHT22;66891;46.884;17.436;2023-05-10T11:55:33;23.11;45.84
77592;DHT22;66891;46.884;17.436;2023-05-10T11:58:01;23.51;44.58
77592;DHT22;66891;46.884;17.436;2023-05-10T12:00:33;24.16;42.02
77592;DHT22;66891;46.884;17.436;2023-05-10T12:03:01;23.24;41.96
77592;DHT22;66891;46.884;17.436;2023-05-10T12:05:32;22.62;44.42
77592;DHT22;66891;46.884;17.436;2023-05-10T12:08:47;22.02;45.56
77592;DHT22;66891;46.884;17.436;2023-05-10T12:11:18;22.52;45.79
77592;DHT22;66891;46.884;17.436;2023-05-10T12:13:49;21.97;46.38
77592;DHT22;66891;46.884;17.436;2023-05-10T12:16:18;22.41;46.56
77592;DHT22;66891;46.884;17.436;2023-05-10T12:18:50;22.15;46.46
77592;DHT22;66891;46.884;17.436;2023-05-10T12:21:20;22.34;45.21
77592;DHT22;66891;46.884;17.436;2023-05-10T12:23:51;21.90;45.72
77592;DHT22;66891;46.884;17.436;2023-05-10T12:26:21;21.77;46.30
77592;DHT22;66891;46.884;17.436;2023-05-10T12:28:49;23.18;47.28
77592;DHT22;66891;46.884;17.436;2023-05-10T12:31:16;22.80;46.90
77592;DHT22;66891;46.884;17.436;2023-05-10T12:33:44;21.83;45.90
77592;DHT22;66891;46.884;17.436;2023-05-10T12:36:13;21.05;46.01
77592;DHT22;66891;46.884;17.436;2023-05-10T12:38:41;20.99;46.36
77592;DHT22;66891;46.884;17.436;2023-05-10T12:41:12;22.01;45.58
77592;DHT22;66891;46.884;17.436;2023-05-10T12:43:40;24.62;42.63
77592;DHT22;66891;46.884;17.436;2023-05-10T12:46:08;25.51;41.10
77592;DHT22;66891;46.884;17.436;2023-05-10T12:48:36;25.67;38.99
77592;DHT22;66891;46.884;17.436;2023-05-10T12:51:04;25.70;39.82
77592;DHT22;66891;46.884;17.436;2023-05-10T12:53:32;26.53;37.48
77592;DHT22;66891;46.884;17.436;2023-05-10T12:56:00;25.85;38.62
77592;DHT22;66891;46.884;17.436;2023-05-10T12:58:28;24.52;40.89
77592;DHT22;66891;46.884;17.436;2023-05-10T13:00:59;24.23;41.64
77592;DHT22;66891;46.884;17.436;2023-05-10T13:03:27;23.72;40.82
77592;DHT22;66891;46.884;17.436;2023-05-10T13:05:54;23.83;43.98
77592;DHT22;66891;46.884;17.436;2023-05-10T13:08:21;23.24;44.30
77592;DHT22;66891;46.884;17.436;2023-05-10T13:10:48;22.48;43.23
77592;DHT22;66891;46.884;17.436;2023-05-10T13:13:15;22.17;46.27
77592;DHT22;66891;46.884;17.436;2023-05-10T13:15:44;22.56;44.87
77592;DHT22;66891;46.884;17.436;2023-05-10T13:18:12;22.77;46.58
77592;DHT22;66891;46.884;17.436;2023-05-10T13:20:39;22.90;42.48
77592;DHT22;66891;46.884;17.436;2023-05-10T13:23:06;22.66;44.47
77592;DHT22;66891;46.884;17.436;2023-05-10T13:25:33;22.74;43.56
77592;DHT22;66891;46.884;17.436;2023-05-10T13:28:01;22.93;45.34
77592;DHT22;66891;46.884;17.436;2023-05-10T13:30:28;22.59;43.44
77592;DHT22;66891;46.884;17.436;2023-05-10T13:32:57;22.66;48.12
77592;DHT22;66891;46.884;17.436;2023-05-10T13:35:24;22.39;43.71
77592;DHT22;66891;46.884;17.436;2023-05-10T13:37:55;22.44;44.25
77592;DHT22;66891;46.884;17.436;2023-05-10T13:40:24;22.32;43.41
77592;DHT22;66891;46.884;17.436;2023-05-10T13:42:51;22.14;46.18
77592;DHT22;66891;46.884;17.436;2023-05-10T13:45:19;22.22;47.62
77592;DHT22;66891;46.884;17.436;2023-05-10T13:47:47;21.88;45.69
77592;DHT22;66891;46.884;17.436;2023-05-10T13:50:16;21.66;45.80
77592;DHT22;66891;46.884;17.436;2023-05-10T13:52:43;21.36;45.13
77592;DHT22;66891;46.884;17.436;2023-05-10T13:55:10;21.39;44.45
77592;DHT22;66891;46.884;17.436;2023-05-10T13:57:40;21.31;44.04
77592;DHT22;66891;46.884;17.436;2023-05-10T14:00:08;20.98;44.05
77592;DHT22;66891;46.884;17.436;2023-05-10T14:02:36;20.74;45.04
77592;DHT22;66891;46.884;17.436;2023-05-10T14:05:04;20.85;43.26
77592;DHT22;66891;46.884;17.436;2023-05-10T14:07:33;21.01;42.08
77592;DHT22;66891;46.884;17.436;2023-05-10T14:10:00;21.29;43.63
77592;DHT22;66891;46.884;17.436;2023-05-10T14:12:27;21.38;44.68
77592;DHT22;66891;46.884;17.436;2023-05-10T14:14:54;21.21;43.99
77592;DHT22;66891;46.884;17.436;2023-05-10T14:17:22;21.01;44.85
77592;DHT22;66891;46.884;17.436;2023-05-10T14:19:49;20.81;47.82
77592;DHT22;66891;46.884;17.436;2023-05-10T14:22:16;21.18;44.78
77592;DHT22;66891;46.884;17.436;2023-05-10T14:24:45;21.15;44.65
77592;DHT22;66891;46.884;17.436;2023-05-10T14:27:13;21.02;46.11
77592;DHT22;66891;46.884;17.436;2023-05-10T14:29:40;21.11;44.10
77592;DHT22;66891;46.884;17.436;2023-05-10T14:32:08;21.38;44.38
77592;DHT22;66891;46.884;17.436;2023-05-10T14:34:35;21.42;44.93
77592;DHT22;66891;46.884;17.436;2023-05-10T14:37:02;21.57;44.37
77592;DHT22;66891;46.884;17.436;2023-05-10T14:39:30;21.25;41.23
77592;DHT22;66891;46.884;17.436;2023-05-10T14:41:58;20.95;42.59
77592;DHT22;66891;46.884;17.436;2023-05-10T14:44:26;20.84;43.87
77592;DHT22;66891;46.884;17.436;2023-05-10T14:46:53;20.88;44.54
77592;DHT22;66891;46.884;17.436;2023-05-10T14:49:20;20.71;45.37
77592;DHT22;66891;46.884;17.436;2023-05-10T14:51:49;20.78;46.91
77592;DHT22;66891;46.884;17.436;2023-05-10T14:54:16;20.81;46.53
77592;DHT22;66891;46.884;17.436;2023-05-10T14:56:44;20.96;46.12
77592;DHT22;66891;46.884;17.436;2023-05-10T14:59:13;21.16;45.30
77592;DHT22;66891;46.884;17.436;2023-05-10T15:01:41;21.11;45.43
77592;DHT22;66891;46.884;17.436;2023-05-10T15:04:09;20.95;47.22
77592;DHT22;66891;46.884;17.436;2023-05-10T15:06:37;20.81;47.49
77592;DHT22;66891;46.884;17.436;2023-05-10T15:09:04;20.67;47.81
77592;DHT22;66891;46.884;17.436;2023-05-10T15:11:31;20.53;45.85
77592;DHT22;66891;46.884;17.436;2023-05-10T15:13:58;20.33;45.86
77592;DHT22;66891;46.884;17.436;2023-05-10T15:16:27;20.20;46.70
77592;DHT22;66891;46.884;17.436;2023-05-10T15:18:54;19.95;46.72
77592;DHT22;66891;46.884;17.436;2023-05-10T15:21:22;19.89;46.90
77592;DHT22;66891;46.884;17.436;2023-05-10T15:23:49;20.00;47.42
77592;DHT22;66891;46.884;17.436;2023-05-10T15:26:16;20.16;48.21
77592;DHT22;66891;46.884;17.436;2023-05-10T15:28:43;20.37;48.63
77592;DHT22;66891;46.884;17.436;2023-05-10T15:31:10;20.32;47.39
77592;DHT22;66891;46.884;17.436;2023-05-10T15:33:39;20.22;47.21
77592;DHT22;66891;46.884;17.436;2023-05-10T15:36:06;20.25;46.67
77592;DHT22;66891;46.884;17.436;2023-05-10T15:38:34;20.09;46.72
77592;DHT22;66891;46.884;17.436;2023-05-10T15:41:01;20.25;47.06
77592;DHT22;66891;46.884;17.436;2023-05-10T15:43:28;20.15;46.60
77592;DHT22;66891;46.884;17.436;2023-05-10T15:45:55;20.12;47.21
77592;DHT22;66891;46.884;17.436;2023-05-10T15:48:22;20.09;47.09
77592;DHT22;66891;46.884;17.436;2023-05-10T15:50:51;20.23;47.76
77592;DHT22;66891;46.884;17.436;2023-05-10T15:53:18;20.30;49.17